Time;durP1;ratioP1;P1;durP2;ratioP2;P2;SDS_P1;SDS_P2;PMS_P1;PMS_P2;Temp;Humidity;BMP_temperature;BMP_pressure;BME280_temperature;BME280_humidity;BME280_pressure;Samples;Min_cycle;Max_cycle;Signal;HPM_P1;HPM_P2
2022/08/29 00:00:31;;;;;;;3.53;1.60;;;16.90;99.90;;;;;;5014627;28;20615;-66
2022/08/29 00:03:00;;;;;;;3.60;1.60;;;16.70;99.90;;;;;;5009474;28;20716;-66
2022/08/29 00:05:32;;;;;;;4.20;1.70;;;16.80;99.90;;;;;;5010460;28;20222;-66
2022/08/29 00:08:01;;;;;;;3.27;1.43;;;16.70;99.90;;;;;;5014188;28;20223;-66
2022/08/29 00:10:30;;;;;;;2.97;1.80;;;16.50;99.90;;;;;;5018999;28;20204;-66
2022/08/29 00:12:57;;;;;;;2.87;1.33;;;16.40;99.90;;;;;;5020306;28;20708;-66
2022/08/29 00:15:24;;;;;;;3.70;1.53;;;16.30;99.90;;;;;;5022658;28;20207;-66
2022/08/29 00:17:51;;;;;;;3.23;1.50;;;16.30;99.90;;;;;;5019739;28;20230;-66
2022/08/29 00:20:21;;;;;;;2.20;1.40;;;16.20;99.90;;;;;;5021361;28;20196;-66
2022/08/29 00:22:59;;;;;;;4.43;2.33;;;16.10;99.90;;;;;;5024874;28;20227;-66
2022/08/29 00:25:26;;;;;;;2.90;1.43;;;16.00;99.90;;;;;;5010182;28;20204;-66
2022/08/29 00:27:53;;;;;;;2.47;1.47;;;16.00;99.90;;;;;;5011788;28;20200;-66
2022/08/29 00:30:22;;;;;;;4.43;1.53;;;15.90;99.90;;;;;;5011605;28;20201;-66
2022/08/29 00:32:50;;;;;;;3.17;1.50;;;15.80;99.90;;;;;;5015588;28;20226;-66
2022/08/29 00:35:22;;;;;;;4.03;1.70;;;15.70;99.90;;;;;;5013141;28;20207;-66
2022/08/29 00:37:50;;;;;;;4.47;1.67;;;15.70;99.90;;;;;;5015848;28;20641;-66
2022/08/29 00:40:22;;;;;;;4.50;1.70;;;15.60;99.90;;;;;;5015377;28;20446;-66
2022/08/29 00:42:49;;;;;;;3.10;1.80;;;15.60;99.90;;;;;;5019266;28;20266;-66
2022/08/29 00:45:16;;;;;;;4.20;1.90;;;15.70;99.90;;;;;;5013809;28;20215;-66
2022/08/29 00:48:05;;;;;;;3.97;1.80;;;15.90;99.90;;;;;;5015601;28;20195;-66
2022/08/29 00:50:37;;;;;;;3.87;2.10;;;16.10;99.90;;;;;;5019358;28;20199;-66
2022/08/29 00:53:06;;;;;;;4.10;1.63;;;16.00;99.90;;;;;;5009471;28;20711;-66
2022/08/29 00:55:34;;;;;;;2.50;1.30;;;15.90;99.90;;;;;;5013043;28;20683;-66
2022/08/29 00:58:07;;;;;;;2.73;1.70;;;15.70;99.90;;;;;;5015483;28;20219;-66
2022/08/29 01:00:34;;;;;;;4.37;1.80;;;15.70;99.90;;;;;;5014696;28;20192;-66
2022/08/29 01:03:04;;;;;;;4.07;1.63;;;15.60;99.90;;;;;;5015849;28;20750;-66
2022/08/29 01:05:31;;;;;;;2.97;1.70;;;15.50;99.90;;;;;;5011458;28;20207;-66
2022/08/29 01:07:58;;;;;;;4.20;1.57;;;15.50;99.90;;;;;;5012287;28;20192;-66
2022/08/29 01:13:11;;;;;;;2.63;1.50;;;15.40;99.90;;;;;;5016520;28;20410;-66
2022/08/29 01:15:40;;;;;;;2.80;1.50;;;15.40;99.90;;;;;;5008324;28;20196;-66
2022/08/29 01:18:09;;;;;;;4.00;1.90;;;15.50;99.90;;;;;;5013831;28;20213;-66
2022/08/29 01:21:00;;;;;;;4.63;2.00;;;15.80;99.90;;;;;;5013450;28;20188;-66
2022/08/29 01:23:32;;;;;;;2.60;1.53;;;15.90;99.90;;;;;;5012844;28;20440;-66
2022/08/29 01:26:01;;;;;;;3.90;1.73;;;15.80;99.90;;;;;;5025209;28;20294;-66
2022/08/29 01:28:31;;;;;;;3.13;1.57;;;15.90;99.90;;;;;;5020043;28;20200;-66
2022/08/29 01:31:03;;;;;;;5.67;1.90;;;16.00;99.90;;;;;;5019674;28;20192;-66
2022/08/29 01:33:40;;;;;;;4.17;1.50;;;15.90;99.90;;;;;;5018080;28;20671;-66
2022/08/29 01:36:09;;;;;;;4.00;1.90;;;15.80;99.90;;;;;;5015922;28;20588;-66
2022/08/29 01:38:37;;;;;;;3.70;1.80;;;15.80;99.90;;;;;;5020316;28;20223;-66
2022/08/29 01:41:04;;;;;;;4.10;1.90;;;15.70;99.90;;;;;;5016453;28;20196;-66
2022/08/29 01:43:40;;;;;;;2.73;1.63;;;15.80;99.90;;;;;;5023844;28;20206;-66
2022/08/29 01:46:07;;;;;;;4.17;2.00;;;15.80;99.90;;;;;;5024965;28;20195;-66
2022/08/29 01:48:37;;;;;;;4.27;1.70;;;15.90;99.90;;;;;;5018776;28;20269;-66
2022/08/29 01:51:04;;;;;;;3.40;1.70;;;16.00;99.90;;;;;;5011038;28;20199;-66
2022/08/29 01:53:31;;;;;;;2.50;1.57;;;15.90;99.90;;;;;;5012176;28;20204;-66
2022/08/29 01:55:58;;;;;;;5.97;2.20;;;15.70;99.90;;;;;;5012435;28;20800;-66
2022/08/29 01:58:24;;;;;;;3.07;1.60;;;15.60;99.90;;;;;;5025492;28;20596;-66
2022/08/29 02:00:51;;;;;;;2.20;1.50;;;15.50;99.90;;;;;;5019854;28;20270;-66
2022/08/29 02:03:18;;;;;;;5.13;1.90;;;15.60;99.90;;;;;;5016389;28;20645;-66
2022/08/29 02:05:46;;;;;;;5.27;1.80;;;15.50;99.90;;;;;;5018333;28;20672;-66
2022/08/29 02:08:13;;;;;;;5.03;2.00;;;15.40;99.90;;;;;;5020041;28;20624;-66
2022/08/29 02:10:40;;;;;;;3.50;1.80;;;15.40;99.90;;;;;;5017859;28;20201;-66
2022/08/29 02:13:07;;;;;;;4.27;1.70;;;15.50;99.90;;;;;;5011696;28;20216;-66
2022/08/29 02:15:34;;;;;;;3.37;1.77;;;15.60;99.90;;;;;;5026694;28;20199;-66
2022/08/29 02:18:01;;;;;;;6.77;1.77;;;15.70;99.90;;;;;;5021840;28;20992;-66
2022/08/29 02:20:28;;;;;;;3.97;1.60;;;15.40;99.90;;;;;;5019952;28;20211;-66
2022/08/29 02:22:54;;;;;;;4.77;1.63;;;15.30;99.90;;;;;;5019788;28;20215;-66
2022/08/29 02:28:10;;;;;;;4.77;1.90;;;15.40;99.90;;;;;;5028141;28;20196;-66
2022/08/29 02:30:39;;;;;;;4.83;1.70;;;15.30;99.90;;;;;;5016978;28;20203;-67
2022/08/29 02:33:07;;;;;;;3.00;1.63;;;15.30;99.90;;;;;;5019448;28;20708;-66
2022/08/29 02:35:34;;;;;;;4.33;1.73;;;15.40;99.90;;;;;;5012218;28;20203;-66
2022/08/29 02:38:09;;;;;;;6.67;1.70;;;15.40;99.90;;;;;;5020118;28;20228;-66
2022/08/29 02:40:36;;;;;;;3.93;1.77;;;15.50;99.90;;;;;;5021836;28;20196;-66
2022/08/29 02:43:04;;;;;;;4.80;1.80;;;15.50;99.90;;;;;;5022933;28;20266;-66
2022/08/29 02:45:31;;;;;;;3.07;1.50;;;15.50;99.90;;;;;;5018032;28;20204;-67
2022/08/29 02:47:58;;;;;;;3.53;1.90;;;15.40;99.90;;;;;;5020339;28;20199;-67
2022/08/29 02:50:25;;;;;;;3.20;1.77;;;15.40;99.90;;;;;;5014963;28;20199;-67
2022/08/29 02:52:52;;;;;;;4.97;1.70;;;15.20;99.90;;;;;;5010891;28;20421;-67
2022/08/29 02:55:20;;;;;;;3.30;1.80;;;15.00;99.90;;;;;;5016574;28;20196;-67
2022/08/29 02:57:47;;;;;;;1.97;1.60;;;14.90;99.90;;;;;;5022460;28;20219;-67
2022/08/29 03:00:18;;;;;;;2.87;1.90;;;14.80;99.90;;;;;;5012100;28;20254;-67
2022/08/29 03:02:46;;;;;;;3.40;1.60;;;14.80;99.90;;;;;;5023832;28;20223;-67
2022/08/29 03:05:15;;;;;;;2.97;1.67;;;14.70;99.90;;;;;;5012989;28;20206;-67
2022/08/29 03:07:42;;;;;;;4.07;1.57;;;14.80;99.90;;;;;;5021907;28;20570;-67
2022/08/29 03:10:11;;;;;;;3.53;1.63;;;14.80;99.90;;;;;;5013043;28;20267;-66
2022/08/29 03:12:38;;;;;;;3.60;1.90;;;14.90;99.90;;;;;;5010635;28;20224;-67
2022/08/29 03:15:06;;;;;;;4.97;1.80;;;15.00;99.90;;;;;;5016571;28;20195;-67
2022/08/29 03:17:34;;;;;;;4.37;1.80;;;15.20;99.90;;;;;;5017130;28;20227;-67
2022/08/29 03:20:01;;;;;;;4.17;1.60;;;15.30;99.90;;;;;;5016228;28;20202;-67
2022/08/29 03:22:28;;;;;;;2.33;1.40;;;15.30;99.90;;;;;;5015394;28;20223;-67
2022/08/29 03:24:54;;;;;;;4.60;1.80;;;15.20;99.90;;;;;;5013202;28;20241;-67
2022/08/29 03:27:21;;;;;;;4.63;1.70;;;15.20;99.90;;;;;;5016775;28;20196;-67
2022/08/29 03:29:48;;;;;;;2.73;1.53;;;15.10;99.90;;;;;;5016507;28;20687;-67
2022/08/29 03:32:15;;;;;;;2.30;1.50;;;15.30;99.90;;;;;;5016350;28;20212;-67
2022/08/29 03:34:41;;;;;;;5.57;1.80;;;15.40;99.90;;;;;;5015129;28;20200;-67
2022/08/29 03:37:08;;;;;;;4.90;2.10;;;15.40;99.90;;;;;;5020292;28;20219;-67
2022/08/29 03:39:36;;;;;;;3.30;1.57;;;15.40;99.90;;;;;;5020431;28;20207;-67
2022/08/29 03:42:05;;;;;;;4.87;1.60;;;15.40;99.90;;;;;;5015681;28;20241;-67
2022/08/29 03:44:36;;;;;;;2.23;1.30;;;15.30;99.90;;;;;;5027714;28;20212;-67
2022/08/29 03:47:04;;;;;;;4.90;1.90;;;15.30;99.90;;;;;;5021291;28;20196;-67
2022/08/29 03:49:32;;;;;;;2.93;1.27;;;15.20;99.90;;;;;;5018353;28;20213;-67
2022/08/29 03:51:59;;;;;;;4.60;1.77;;;15.30;99.90;;;;;;5020990;28;20227;-67
2022/08/29 03:54:26;;;;;;;3.17;1.57;;;15.20;99.90;;;;;;5014968;28;20197;-67
2022/08/29 03:56:54;;;;;;;3.03;1.77;;;15.20;99.90;;;;;;5011669;28;20211;-67
2022/08/29 03:59:22;;;;;;;4.97;1.60;;;15.20;99.90;;;;;;5023984;28;20209;-67
2022/08/29 04:01:49;;;;;;;2.97;1.50;;;15.30;99.90;;;;;;5014673;28;20230;-67
2022/08/29 04:07:05;;;;;;;5.53;1.63;;;14.90;99.90;;;;;;5022258;28;20221;-66
2022/08/29 04:09:32;;;;;;;4.77;1.53;;;14.90;99.90;;;;;;5027415;28;20575;-67
2022/08/29 04:11:59;;;;;;;2.07;1.37;;;14.70;99.90;;;;;;5015965;28;20226;-68
2022/08/29 04:14:26;;;;;;;2.90;1.80;;;14.70;99.90;;;;;;5022021;28;20702;-66
2022/08/29 04:16:53;;;;;;;5.60;2.10;;;14.70;99.90;;;;;;5018256;28;20203;-68
2022/08/29 04:19:20;;;;;;;3.00;1.60;;;14.80;99.90;;;;;;5023298;28;20234;-68
2022/08/29 04:21:47;;;;;;;5.10;2.00;;;14.80;99.90;;;;;;5017014;28;20222;-67
2022/08/29 04:24:15;;;;;;;4.57;1.80;;;14.80;99.90;;;;;;5007097;28;20573;-67
2022/08/29 04:26:42;;;;;;;4.60;1.70;;;14.80;99.90;;;;;;5016004;28;20629;-68
2022/08/29 04:29:10;;;;;;;3.13;1.60;;;14.80;99.90;;;;;;5008475;28;20210;-68
2022/08/29 04:31:38;;;;;;;3.33;1.80;;;14.90;99.90;;;;;;5018220;28;20227;-69
2022/08/29 04:34:07;;;;;;;3.43;1.50;;;14.90;99.90;;;;;;5018697;28;20242;-67
2022/08/29 04:36:35;;;;;;;2.93;1.70;;;15.00;99.90;;;;;;5013209;28;20211;-67
2022/08/29 04:39:04;;;;;;;4.90;1.70;;;14.90;99.90;;;;;;5017251;28;20717;-66
2022/08/29 04:41:31;;;;;;;5.53;2.00;;;14.80;99.90;;;;;;5014382;28;20224;-68
2022/08/29 04:43:59;;;;;;;4.87;1.73;;;14.80;99.90;;;;;;5013744;28;20540;-68
2022/08/29 04:46:25;;;;;;;3.20;1.77;;;14.70;99.90;;;;;;5018835;28;20200;-68
2022/08/29 04:48:53;;;;;;;3.00;1.80;;;14.70;99.90;;;;;;5018399;28;20233;-67
2022/08/29 04:51:20;;;;;;;4.70;2.00;;;14.70;99.90;;;;;;5023684;28;20219;-68
2022/08/29 04:53:48;;;;;;;2.50;1.63;;;14.80;99.90;;;;;;5021064;28;20668;-66
2022/08/29 04:56:15;;;;;;;5.00;1.90;;;14.80;99.90;;;;;;5016067;28;20199;-67
2022/08/29 04:58:43;;;;;;;6.27;2.03;;;14.80;99.90;;;;;;5017007;28;20219;-68
2022/08/29 05:01:16;;;;;;;5.43;1.90;;;14.90;99.90;;;;;;5028955;28;20504;-67
2022/08/29 05:03:43;;;;;;;4.47;1.83;;;15.00;99.90;;;;;;5025312;28;20745;-67
2022/08/29 05:06:12;;;;;;;2.70;1.80;;;15.10;99.90;;;;;;5013326;28;20199;-67
2022/08/29 05:08:40;;;;;;;4.90;2.20;;;15.10;99.90;;;;;;5018601;28;20210;-67
2022/08/29 05:11:16;;;;;;;3.57;2.00;;;15.10;99.90;;;;;;5015460;28;20203;-67
2022/08/29 05:13:50;;;;;;;6.63;1.87;;;15.10;99.90;;;;;;5020757;28;20199;-67
2022/08/29 05:16:17;;;;;;;3.73;1.93;;;15.10;99.90;;;;;;5022120;28;20200;-67
2022/08/29 05:18:45;;;;;;;5.37;2.20;;;15.20;99.90;;;;;;5018312;28;20635;-67
2022/08/29 05:21:25;;;;;;;3.27;1.83;;;15.40;99.90;;;;;;5021866;28;20192;-67
2022/08/29 05:23:55;;;;;;;3.40;1.93;;;15.50;99.90;;;;;;5020829;28;20192;-67
2022/08/29 05:26:22;;;;;;;5.53;2.10;;;15.60;99.90;;;;;;5012579;28;20653;-67
2022/08/29 05:28:49;;;;;;;3.70;1.80;;;15.70;99.90;;;;;;5012919;28;20203;-67
2022/08/29 05:31:17;;;;;;;5.03;1.87;;;15.90;99.90;;;;;;5014935;28;20196;-67
2022/08/29 05:33:44;;;;;;;4.90;1.83;;;16.10;99.90;;;;;;5017868;28;20505;-67
2022/08/29 05:36:11;;;;;;;3.70;1.93;;;16.30;99.90;;;;;;5020909;28;20204;-67
2022/08/29 05:38:37;;;;;;;5.73;1.90;;;16.40;99.90;;;;;;5013588;28;20224;-67
2022/08/29 05:41:06;;;;;;;3.90;2.23;;;16.60;99.90;;;;;;5014759;28;20189;-67
2022/08/29 05:43:33;;;;;;;3.87;1.90;;;16.70;99.90;;;;;;5014710;28;20211;-67
2022/08/29 05:46:10;;;;;;;4.90;1.90;;;16.80;99.90;;;;;;5018539;28;20549;-67
2022/08/29 05:48:44;;;;;;;5.80;1.90;;;17.00;99.90;;;;;;5017479;28;20308;-67
2022/08/29 05:51:15;;;;;;;4.80;2.10;;;17.00;99.90;;;;;;5016434;28;20211;-67
2022/08/29 05:53:42;;;;;;;2.97;1.80;;;16.90;99.90;;;;;;5021992;28;20214;-67
2022/08/29 05:56:09;;;;;;;4.23;2.00;;;16.80;99.90;;;;;;5014438;28;20204;-67
2022/08/29 05:58:36;;;;;;;6.97;2.00;;;16.90;99.90;;;;;;5017750;28;20223;-67
2022/08/29 06:01:02;;;;;;;3.83;1.83;;;16.90;99.90;;;;;;5017216;28;20204;-67
2022/08/29 06:03:30;;;;;;;4.17;2.13;;;17.00;99.90;;;;;;5013620;28;20208;-67
2022/08/29 06:05:57;;;;;;;5.50;1.87;;;17.00;99.90;;;;;;5016934;28;21265;-67
2022/08/29 06:08:23;;;;;;;4.70;1.73;;;17.10;99.90;;;;;;5006889;28;20200;-67
2022/08/29 06:10:50;;;;;;;6.10;2.00;;;17.10;99.90;;;;;;5010301;28;20195;-67
2022/08/29 06:13:17;;;;;;;3.60;1.90;;;17.20;99.90;;;;;;5021498;28;20314;-67
2022/08/29 06:15:44;;;;;;;3.13;2.00;;;17.30;99.90;;;;;;5013094;28;20203;-67
2022/08/29 06:18:12;;;;;;;4.17;2.13;;;17.40;99.90;;;;;;5017689;28;20222;-67
2022/08/29 06:20:39;;;;;;;4.70;2.00;;;17.50;99.90;;;;;;5010734;28;20204;-67
2022/08/29 06:23:06;;;;;;;5.43;2.07;;;17.60;99.90;;;;;;5011250;28;20215;-67
2022/08/29 06:25:33;;;;;;;4.30;2.27;;;17.70;99.90;;;;;;5012131;28;20208;-67
2022/08/29 06:28:05;;;;;;;5.17;1.90;;;17.80;99.90;;;;;;5019355;28;20250;-67
2022/08/29 06:30:32;;;;;;;5.40;1.90;;;17.80;99.90;;;;;;5011223;28;20196;-67
2022/08/29 06:33:00;;;;;;;4.47;2.00;;;17.90;99.90;;;;;;5015244;28;20247;-67
2022/08/29 06:35:27;;;;;;;5.87;2.30;;;17.80;99.90;;;;;;5010734;28;20207;-67
2022/08/29 06:37:54;;;;;;;5.63;1.90;;;18.00;99.90;;;;;;5016951;28;20195;-67
2022/08/29 06:40:21;;;;;;;5.47;1.87;;;18.00;99.90;;;;;;5018258;28;20219;-68
2022/08/29 06:42:48;;;;;;;4.03;1.80;;;18.20;99.90;;;;;;5011174;28;20352;-69
2022/08/29 06:45:15;;;;;;;5.97;1.77;;;18.30;99.90;;;;;;5014401;28;20203;-68
2022/08/29 06:47:44;;;;;;;5.80;2.00;;;18.40;99.90;;;;;;5015999;28;20202;-68
2022/08/29 06:50:11;;;;;;;4.67;1.90;;;18.60;99.90;;;;;;5020344;28;20222;-67
2022/08/29 06:52:37;;;;;;;3.23;1.80;;;18.70;99.90;;;;;;5014448;28;20322;-69
2022/08/29 06:55:07;;;;;;;4.43;2.07;;;18.90;99.90;;;;;;5025195;28;20195;-68
2022/08/29 06:57:34;;;;;;;4.47;1.70;;;18.90;99.90;;;;;;5014449;28;20262;-67
2022/08/29 07:00:00;;;;;;;3.43;1.90;;;19.20;99.90;;;;;;5014575;28;20227;-69
2022/08/29 07:02:39;;;;;;;4.93;2.03;;;19.30;99.90;;;;;;5019745;28;21036;-68
2022/08/29 07:05:07;;;;;;;2.60;1.60;;;19.40;99.90;;;;;;5013821;28;20193;-69
2022/08/29 07:07:33;;;;;;;4.93;1.70;;;19.70;99.90;;;;;;5012198;28;20207;-69
2022/08/29 07:10:01;;;;;;;3.83;1.60;;;19.90;99.90;;;;;;5016994;28;20206;-70
2022/08/29 07:12:28;;;;;;;5.77;1.97;;;20.20;99.90;;;;;;5017864;28;20223;-68
2022/08/29 07:14:56;;;;;;;3.23;1.70;;;20.50;99.90;;;;;;5013585;28;20206;-68
2022/08/29 07:17:23;;;;;;;4.77;1.70;;;20.70;99.90;;;;;;5022745;28;20215;-68
2022/08/29 07:19:52;;;;;;;5.40;1.65;;;21.00;99.90;;;;;;5020310;28;20714;-68
2022/08/29 07:22:19;;;;;;;3.60;1.58;;;21.40;99.90;;;;;;5011942;28;20211;-67
2022/08/29 07:24:45;;;;;;;3.97;1.70;;;21.70;99.90;;;;;;5012035;28;20196;-68
2022/08/29 07:27:13;;;;;;;7.25;1.73;;;21.90;99.90;;;;;;5012298;28;20199;-68
2022/08/29 07:29:40;;;;;;;3.63;1.70;;;22.20;99.90;;;;;;5012792;28;20200;-68
2022/08/29 07:32:07;;;;;;;5.43;1.80;;;22.20;99.90;;;;;;5014985;28;20226;-71
2022/08/29 07:34:35;;;;;;;3.22;1.80;;;22.20;99.90;;;;;;5018866;28;20205;-70
2022/08/29 07:37:03;;;;;;;3.00;1.50;;;22.10;99.90;;;;;;5023314;28;20204;-72
2022/08/29 07:39:31;;;;;;;5.68;1.40;;;22.10;99.90;;;;;;5019936;28;20921;-70
2022/08/29 07:41:58;;;;;;;4.45;1.70;;;22.30;99.90;;;;;;5013176;28;20230;-68
2022/08/29 07:44:25;;;;;;;7.35;1.50;;;22.60;99.90;;;;;;5017727;28;20750;-69
2022/08/29 07:46:57;;;;;;;2.67;1.52;;;22.80;99.90;;;;;;5014261;28;20208;-70
2022/08/29 07:49:26;;;;;;;5.93;1.90;;;23.00;99.90;;;;;;5019067;28;20206;-71
2022/08/29 07:52:06;;;;;;;3.53;1.77;;;22.90;99.90;;;;;;5027455;28;20220;-70
2022/08/29 07:54:33;;;;;;;4.53;1.75;;;22.70;99.90;;;;;;5036774;28;20207;-70
2022/08/29 07:57:00;;;;;;;4.30;2.00;;;22.60;99.90;;;;;;5037643;28;20222;-70
2022/08/29 07:59:27;;;;;;;5.63;2.03;;;22.90;99.90;;;;;;5030041;28;20265;-69
2022/08/29 08:01:53;;;;;;;3.42;1.85;;;23.00;99.90;;;;;;5035726;28;20227;-70
2022/08/29 08:04:20;;;;;;;3.67;1.70;;;23.10;99.90;;;;;;5022931;28;20633;-70
2022/08/29 08:06:49;;;;;;;4.68;1.67;;;23.10;99.90;;;;;;5014993;28;20191;-68
2022/08/29 08:09:16;;;;;;;3.95;1.60;;;23.30;99.90;;;;;;5020959;28;20251;-68
2022/08/29 08:11:43;;;;;;;6.68;1.83;;;23.50;99.90;;;;;;5017608;28;20223;-68
2022/08/29 08:14:11;;;;;;;4.40;1.63;;;23.50;99.90;;;;;;5016715;28;20207;-67
2022/08/29 08:16:37;;;;;;;4.97;1.88;;;23.50;99.90;;;;;;5010641;28;20204;-67
2022/08/29 08:19:10;;;;;;;4.22;1.70;;;23.50;99.90;;;;;;5012591;28;20302;-67
2022/08/29 08:21:37;;;;;;;4.57;1.98;;;23.70;99.90;;;;;;5014252;28;20216;-67
2022/08/29 08:24:15;;;;;;;4.90;2.20;;;23.80;99.90;;;;;;5019782;28;20566;-67
2022/08/29 08:26:46;;;;;;;3.33;1.90;;;23.70;99.90;;;;;;5017919;28;20398;-67
2022/08/29 08:29:12;;;;;;;3.38;1.80;;;23.80;99.90;;;;;;5018488;28;20204;-67
2022/08/29 08:31:48;;;;;;;4.57;1.75;;;23.90;99.90;;;;;;5015048;28;20219;-67
2022/08/29 08:34:16;;;;;;;7.20;2.00;;;24.00;99.90;;;;;;5013881;28;20200;-66
2022/08/29 08:36:44;;;;;;;6.32;2.28;;;24.20;99.90;;;;;;5009630;28;20680;-66
2022/08/29 08:39:12;;;;;;;9.63;2.20;;;24.20;99.90;;;;;;5009912;28;20212;-67
2022/08/29 08:41:58;;;;;;;7.13;1.95;;;24.20;99.90;;;;;;5005171;28;20224;-66
2022/08/29 08:44:48;;;;;;;5.85;2.10;;;24.20;99.90;;;;;;5016358;28;20203;-69
2022/08/29 08:47:24;;;;;;;5.03;2.10;;;24.40;99.90;;;;;;5011326;28;20669;-68
2022/08/29 08:50:00;;;;;;;6.88;2.10;;;24.50;99.90;;;;;;5013042;28;20214;-70
2022/08/29 08:52:36;;;;;;;3.05;1.70;;;24.30;99.90;;;;;;5018826;28;20571;-68
2022/08/29 08:55:13;;;;;;;6.15;2.13;;;24.20;99.90;;;;;;5016275;28;20237;-70
2022/08/29 08:57:46;;;;;;;8.38;2.20;;;24.20;99.90;;;;;;5013873;28;20207;-67
2022/08/29 09:00:13;;;;;;;4.18;2.22;;;24.10;99.90;;;;;;5006937;28;20236;-68
2022/08/29 09:03:01;;;;;;;5.03;2.17;;;24.20;99.90;;;;;;5013469;28;20230;-67
2022/08/29 09:05:39;;;;;;;5.18;1.92;;;24.30;99.90;;;;;;5014619;28;20194;-67
2022/08/29 09:08:34;;;;;;;7.80;2.10;;;24.60;99.90;;;;;;5015356;28;20234;-68
2022/08/29 09:11:40;;;;;;;7.32;2.30;;;24.80;99.90;;;;;;5012564;28;20200;-66
2022/08/29 09:14:13;;;;;;;5.18;2.05;;;24.90;99.90;;;;;;5015716;28;20208;-71
2022/08/29 09:16:48;;;;;;;4.90;1.60;;;24.90;99.90;;;;;;5013576;28;20248;-69
2022/08/29 09:19:15;;;;;;;7.63;2.13;;;24.90;99.90;;;;;;5020948;28;20258;-67
2022/08/29 09:21:54;;;;;;;3.40;1.77;;;25.00;99.90;;;;;;5012179;28;20227;-67
2022/08/29 09:24:35;;;;;;;5.63;1.85;;;25.10;99.90;;;;;;5014332;28;20607;-66
2022/08/29 09:27:02;;;;;;;4.53;1.80;;;25.20;99.90;;;;;;5004579;28;20200;-68
2022/08/29 09:29:29;;;;;;;4.35;2.10;;;25.30;99.90;;;;;;5012239;28;20216;-68
2022/08/29 09:32:06;;;;;;;6.13;1.77;;;25.00;99.90;;;;;;5018002;28;20235;-68
2022/08/29 09:34:40;;;;;;;4.93;1.92;;;25.00;99.90;;;;;;5017435;28;20207;-67
2022/08/29 09:37:32;;;;;;;6.53;1.98;;;25.20;99.90;;;;;;5010252;28;20208;-68
2022/08/29 09:40:12;;;;;;;3.83;1.63;;;25.50;99.90;;;;;;5012823;28;20222;-68
2022/08/29 09:42:57;;;;;;;6.60;1.90;;;25.60;99.90;;;;;;5017033;28;20703;-68
2022/08/29 09:45:25;;;;;;;5.20;1.58;;;25.60;99.90;;;;;;5014107;28;20200;-67
2022/08/29 09:48:13;;;;;;;5.90;1.80;;;25.50;99.90;;;;;;5009618;28;20196;-67
2022/08/29 09:50:40;;;;;;;3.13;1.70;;;25.50;99.90;;;;;;5020489;28;20228;-67
2022/08/29 09:53:07;;;;;;;3.67;2.03;;;25.50;99.90;;;;;;5008242;28;20215;-69
2022/08/29 09:55:51;;;;;;;3.85;1.63;;;25.40;99.90;;;;;;5016080;28;20199;-67
2022/08/29 09:58:20;;;;;;;5.78;2.17;;;25.50;99.90;;;;;;5014637;28;20669;-66
2022/08/29 10:01:08;;;;;;;5.82;2.05;;;25.40;99.90;;;;;;5016398;28;20215;-69
2022/08/29 10:03:42;;;;;;;3.58;1.80;;;25.30;99.90;;;;;;5025825;28;20206;-67
2022/08/29 10:06:16;;;;;;;8.30;1.50;;;25.20;99.90;;;;;;5015186;28;20568;-68
2022/08/29 10:09:00;;;;;;;7.13;1.80;;;25.20;99.90;;;;;;5015772;28;20458;-68
2022/08/29 10:11:52;;;;;;;3.20;1.48;;;25.40;99.90;;;;;;5015321;28;20220;-69
2022/08/29 10:14:42;;;;;;;5.55;1.90;;;25.70;99.90;;;;;;5010544;28;20283;-68
2022/08/29 10:20:37;;;;;;;5.53;1.95;;;26.00;99.90;;;;;;5011420;28;20219;-67
2022/08/29 10:23:17;;;;;;;5.22;2.00;;;25.90;99.90;;;;;;5015718;28;20219;-67
2022/08/29 10:25:43;;;;;;;2.95;1.65;;;26.00;99.90;;;;;;5019977;28;20521;-68
2022/08/29 10:28:36;;;;;;;3.83;1.73;;;26.20;99.90;;;;;;5017176;28;20687;-67
2022/08/29 10:31:09;;;;;;;7.35;2.20;;;26.10;99.90;;;;;;5019594;28;20292;-68
2022/08/29 10:34:07;;;;;;;4.72;1.90;;;26.30;99.90;;;;;;5019991;28;20199;-67
2022/08/29 10:36:42;;;;;;;3.42;1.88;;;26.20;99.90;;;;;;5012971;28;20218;-67
2022/08/29 10:39:32;;;;;;;5.90;2.25;;;26.30;99.90;;;;;;5011846;28;20624;-68
2022/08/29 10:42:08;;;;;;;6.15;1.90;;;26.40;99.90;;;;;;5003415;28;20319;-68
2022/08/29 10:44:50;;;;;;;4.35;1.83;;;26.60;99.90;;;;;;5012484;28;20215;-68
2022/08/29 10:47:33;;;;;;;5.18;1.80;;;26.80;99.90;;;;;;5011762;28;20656;-68
2022/08/29 10:50:46;;;;;;;3.65;1.60;;;26.70;99.90;;;;;;5008588;28;20196;-68
2022/08/29 10:53:16;;;;;;;8.15;1.88;;;26.90;99.90;;;;;;5016167;28;20307;-69
2022/08/29 10:55:52;;;;;;;4.43;2.00;;;27.10;99.90;;;;;;5016178;28;20486;-70
2022/08/29 10:58:25;;;;;;;5.35;2.00;;;27.30;99.90;;;;;;5006479;28;21405;-70
2022/08/29 11:01:21;;;;;;;6.03;1.80;;;27.20;99.90;;;;;;5014712;28;20254;-71
2022/08/29 11:03:57;;;;;;;5.38;1.90;;;27.40;99.70;;;;;;5004733;28;20196;-71
2022/08/29 11:06:30;;;;;;;3.33;1.80;;;27.30;99.60;;;;;;5021719;28;20700;-71
2022/08/29 11:09:14;;;;;;;6.97;2.13;;;27.60;99.50;;;;;;5017036;28;20337;-72
2022/08/29 11:11:54;;;;;;;5.63;1.90;;;27.70;99.30;;;;;;5014803;28;20298;-72
2022/08/29 11:14:26;;;;;;;7.10;2.15;;;27.80;99.30;;;;;;5011583;28;20677;-73
2022/08/29 11:16:54;;;;;;;5.28;2.15;;;27.90;99.20;;;;;;5023031;28;20196;-72
2022/08/29 11:19:29;;;;;;;6.00;1.95;;;27.90;99.00;;;;;;5017826;28;20220;-71
2022/08/29 11:22:03;;;;;;;4.35;1.83;;;27.70;98.90;;;;;;5011173;28;20220;-73
2022/08/29 11:24:34;;;;;;;6.28;2.00;;;27.20;99.50;;;;;;5012958;28;20204;-71
2022/08/29 11:27:17;;;;;;;5.15;1.90;;;27.00;99.90;;;;;;5009580;28;20630;-71
2022/08/29 11:29:50;;;;;;;3.65;1.70;;;27.20;99.80;;;;;;5015317;28;20195;-71
2022/08/29 11:32:19;;;;;;;5.07;1.80;;;27.50;99.10;;;;;;5013800;28;20216;-72
2022/08/29 11:34:51;;;;;;;3.67;1.88;;;27.50;98.90;;;;;;5014556;28;20207;-70
2022/08/29 11:37:27;;;;;;;3.72;1.90;;;27.50;99.20;;;;;;5011048;28;20192;-68
2022/08/29 11:40:19;;;;;;;5.07;2.00;;;27.60;99.40;;;;;;5015359;28;20223;-70
2022/08/29 11:43:10;;;;;;;5.85;2.00;;;27.70;98.80;;;;;;5008499;28;20273;-71
2022/08/29 11:45:41;;;;;;;3.83;1.63;;;28.00;98.70;;;;;;5004689;28;20199;-71
2022/08/29 11:48:38;;;;;;;3.10;1.80;;;28.20;98.50;;;;;;5007810;28;20204;-69
2022/08/29 11:51:36;;;;;;;6.90;2.28;;;28.40;98.00;;;;;;5011364;28;20203;-69
2022/08/29 11:54:41;;;;;;;7.60;2.03;;;28.70;98.20;;;;;;5019812;28;20203;-71
2022/08/29 11:57:07;;;;;;;7.97;2.00;;;28.80;97.80;;;;;;5016062;28;20203;-73
2022/08/29 11:59:55;;;;;;;6.93;1.95;;;28.80;97.70;;;;;;5011882;28;20228;-70
2022/08/29 12:02:29;;;;;;;4.00;1.83;;;28.80;97.50;;;;;;5014149;28;20215;-68
2022/08/29 12:05:15;;;;;;;4.30;2.20;;;28.80;97.50;;;;;;5015984;28;20282;-68
2022/08/29 12:08:00;;;;;;;4.47;1.90;;;29.00;97.50;;;;;;5010156;28;20199;-71
2022/08/29 12:10:54;;;;;;;5.88;2.17;;;29.20;97.40;;;;;;5015018;28;21045;-70
2022/08/29 12:13:42;;;;;;;5.03;1.90;;;29.10;97.30;;;;;;5016014;28;20231;-69
2022/08/29 12:16:11;;;;;;;7.20;2.00;;;29.20;97.40;;;;;;5010567;28;20200;-68
2022/08/29 12:18:44;;;;;;;4.10;2.45;;;29.40;97.00;;;;;;5011798;28;20254;-67
2022/08/29 12:21:37;;;;;;;8.15;2.13;;;29.30;96.40;;;;;;5017706;28;20614;-70
2022/08/29 12:24:28;;;;;;;2.35;1.60;;;29.20;96.90;;;;;;5019568;28;20277;-70
2022/08/29 12:26:55;;;;;;;3.53;1.83;;;29.30;96.60;;;;;;5012575;28;20852;-72
2022/08/29 12:29:32;;;;;;;5.53;2.17;;;29.50;96.80;;;;;;5016361;28;20202;-70
2022/08/29 12:32:31;;;;;;;5.70;1.92;;;29.60;96.30;;;;;;5020229;28;20612;-71
2022/08/29 12:35:16;;;;;;;5.60;1.90;;;29.60;95.70;;;;;;5013317;28;20196;-70
2022/08/29 12:38:08;;;;;;;4.40;2.00;;;29.20;95.90;;;;;;5019078;28;20250;-70
2022/08/29 12:41:17;;;;;;;3.72;1.90;;;29.20;96.30;;;;;;5005908;28;20219;-72
2022/08/29 12:43:45;;;;;;;5.88;2.30;;;29.10;96.00;;;;;;5020750;28;20232;-69
2022/08/29 12:46:26;;;;;;;5.28;2.05;;;29.20;96.50;;;;;;5010517;28;20195;-69
2022/08/29 12:49:16;;;;;;;7.40;1.90;;;29.20;96.20;;;;;;5017535;28;20246;-70
2022/08/29 12:51:46;;;;;;;3.00;1.80;;;29.10;96.20;;;;;;5015818;28;20220;-69
2022/08/29 12:54:13;;;;;;;8.93;1.95;;;29.00;95.80;;;;;;5016579;28;20192;-68
2022/08/29 12:56:47;;;;;;;5.05;2.05;;;28.70;96.10;;;;;;5014553;28;20673;-68
2022/08/29 12:59:19;;;;;;;6.95;1.70;;;28.60;96.40;;;;;;5015918;28;20203;-68
2022/08/29 13:01:48;;;;;;;5.03;2.20;;;28.80;96.30;;;;;;5011403;28;20227;-69
2022/08/29 13:04:31;;;;;;;6.18;1.90;;;28.90;95.90;;;;;;5013561;28;20191;-73
2022/08/29 13:07:07;;;;;;;4.72;2.00;;;29.10;95.90;;;;;;5010895;28;20234;-70
2022/08/29 13:09:43;;;;;;;3.53;1.92;;;29.20;95.70;;;;;;5019082;28;20202;-73
2022/08/29 13:12:09;;;;;;;5.53;2.28;;;29.20;95.70;;;;;;5013562;28;20226;-72
2022/08/29 13:14:55;;;;;;;4.20;2.13;;;29.40;95.10;;;;;;5020270;28;20575;-71
2022/08/29 13:17:43;;;;;;;8.00;2.30;;;29.40;96.10;;;;;;5011224;28;20196;-72
2022/08/29 13:20:41;;;;;;;6.72;1.77;;;29.50;95.40;;;;;;5014934;28;20246;-70
2022/08/29 13:23:11;;;;;;;3.83;1.95;;;29.60;95.60;;;;;;5015386;28;20584;-68
2022/08/29 13:25:50;;;;;;;5.32;1.92;;;29.60;95.10;;;;;;5013881;28;20204;-68